Terminal Aerodrome Forecast
Issued by NWS

Home | Current Version | Previous Version | Text Only | Print | Product List | Glossary On
Versions: 1 2 3 4 5 6 7 8 9 10 11 12 13 14 15 16 17 18 19 20 21
208
FTUS43 KGRB 211149
TAFMTW
TAF
KMTW 211149Z 2112/2212 14005KT 1/2SM FG OVC003
     FM211300 18006KT 1 1/2SM BR OVC004
     FM211500 20008KT 3SM BR BKN006
     FM211800 21011G22KT P6SM BKN025
     FM212100 23017G25KT P6SM BKN030
     FM220100 23010KT P6SM BKN035=

USA.gov is the U.S. government's official web portal to all federal, state and local government web resources and services.